Gold Run, California
Current Conditions -  °F | °C
As of 10:20 AM on Thursday 23 Oct 2014 (Local Time) from KGOO Reporting Station
Broken Clouds Broken Clouds  
Wind Chill: 59°   Ceiling: 12000
Heat Index: 59°   Visibility: 10mi
Dew Point: 37°   Wind: 5mph
Humidity: 45%   Direction: 130°SE
Pressure: 30.13"   Gusts: NA
Location:  39.18°N, 120.85°W
Report Text: KGOO 231720Z AUTO 13004KT 10SM BKN120 15/03 A3013 RMK AO1
Loading
Personal Weather Stations






























Interactive Weather Map
Tropical Storm Tracking
New forecast layout! Learn more

10-Day Weather Forecast

Advertisements
Track Severe Weather on mobile